createdAt,value
2023-02-19T00:02:21.225Z,3.31
2023-02-19T00:05:45.174Z,3.32
2023-02-19T00:09:11.542Z,3.34
2023-02-19T00:12:35.581Z,3.36
2023-02-19T00:16:07.046Z,3.40
2023-02-19T00:19:31.226Z,3.39
2023-02-19T00:22:55.229Z,3.37
2023-02-19T00:26:19.972Z,3.36
2023-02-19T00:29:44.686Z,3.38
2023-02-19T00:33:09.393Z,3.39
2023-02-19T00:36:36.286Z,3.38
2023-02-19T00:40:00.450Z,3.39
2023-02-19T00:43:24.405Z,3.40
2023-02-19T00:46:49.139Z,3.37
2023-02-19T00:50:13.131Z,3.40
2023-02-19T00:53:39.831Z,3.41
2023-02-19T00:57:03.714Z,3.40
2023-02-19T01:00:27.619Z,3.40
2023-02-19T01:03:52.082Z,3.37
2023-02-19T01:07:16.104Z,3.37
2023-02-19T01:10:41.636Z,3.35
2023-02-19T01:14:05.695Z,3.32
2023-02-19T01:17:29.753Z,3.31
2023-02-19T01:20:53.860Z,3.32
2023-02-19T01:24:17.815Z,3.35
2023-02-19T01:27:41.742Z,3.37
2023-02-19T01:31:13.506Z,3.41
2023-02-19T01:34:37.630Z,3.44
2023-02-19T01:38:01.591Z,3.43
2023-02-19T01:41:26.805Z,3.39
2023-02-19T01:45:12.236Z,3.36
2023-02-19T01:48:40.517Z,3.31
2023-02-19T01:52:16.886Z,3.24
2023-02-19T01:55:41.774Z,3.16
2023-02-19T01:59:07.777Z,3.09
2023-02-19T02:02:31.901Z,3.08
2023-02-19T02:06:24.238Z,3.09
2023-02-19T02:10:06.198Z,3.10
2023-02-19T02:13:30.878Z,3.06
2023-02-19T02:17:06.868Z,3.02
2023-02-19T02:20:55.379Z,3.00
2023-02-19T02:24:42.698Z,2.98
2023-02-19T02:28:19.383Z,3.01
2023-02-19T02:32:06.239Z,3.02
2023-02-19T02:35:36.316Z,3.03
2023-02-19T02:39:05.298Z,3.02
2023-02-19T02:42:30.679Z,2.98
2023-02-19T02:45:59.045Z,2.94
2023-02-19T02:49:28.514Z,2.91
2023-02-19T02:53:17.663Z,2.92
2023-02-19T02:56:44.041Z,2.95
2023-02-19T03:00:08.684Z,2.99
2023-02-19T03:03:34.902Z,3.02
2023-02-19T03:07:03.244Z,3.05
2023-02-19T03:10:50.426Z,3.02
2023-02-19T03:14:33.119Z,3.03
2023-02-19T03:18:20.103Z,3.06
2023-02-19T03:21:46.776Z,3.08
2023-02-19T03:25:43.053Z,3.06
2023-02-19T03:29:24.425Z,3.05
2023-02-19T03:33:01.482Z,3.01
2023-02-19T03:36:31.624Z,2.99
2023-02-19T03:39:56.582Z,2.96
2023-02-19T03:43:25.197Z,2.98
2023-02-19T03:47:03.754Z,3.02
2023-02-19T03:50:37.714Z,3.06
2023-02-19T03:54:33.576Z,3.00
2023-02-19T03:58:15.298Z,3.00
2023-02-19T04:01:46.405Z,3.00
2023-02-19T04:05:25.976Z,3.02
2023-02-19T04:08:55.302Z,2.98
2023-02-19T04:12:23.756Z,2.98
2023-02-19T04:15:49.718Z,2.98
2023-02-19T04:19:15.254Z,2.99
2023-02-19T04:22:40.250Z,2.96
2023-02-19T04:26:06.792Z,2.93
2023-02-19T04:29:30.699Z,2.88
2023-02-19T04:32:54.555Z,2.83
2023-02-19T04:36:18.637Z,2.78
2023-02-19T04:39:42.585Z,2.71
2023-02-19T04:43:06.606Z,2.67
2023-02-19T04:46:30.696Z,2.66
2023-02-19T04:49:54.653Z,2.66
2023-02-19T04:53:18.480Z,2.65
2023-02-19T04:56:42.376Z,2.68
2023-02-19T05:00:06.783Z,2.70
2023-02-19T05:03:30.956Z,2.73
2023-02-19T05:06:54.831Z,2.73
2023-02-19T05:10:18.776Z,2.70
2023-02-19T05:13:42.780Z,2.67
2023-02-19T05:17:07.594Z,2.60
2023-02-19T05:20:31.515Z,2.58
2023-02-19T05:23:55.310Z,2.59
2023-02-19T05:27:19.233Z,2.62
2023-02-19T05:30:43.078Z,2.64
2023-02-19T05:34:06.956Z,2.68
2023-02-19T05:37:30.839Z,2.70
2023-02-19T05:40:54.855Z,2.73
2023-02-19T05:44:18.872Z,2.74
2023-02-19T05:47:42.780Z,2.71
2023-02-19T05:51:09.568Z,2.70
2023-02-19T05:54:33.864Z,2.67
2023-02-19T05:57:58.212Z,2.67
2023-02-19T06:01:25.043Z,2.68
2023-02-19T06:04:49.079Z,2.73
2023-02-19T06:08:19.568Z,2.77
2023-02-19T06:11:43.661Z,2.79
2023-02-19T06:15:08.388Z,2.82
2023-02-19T06:18:32.277Z,2.83
2023-02-19T06:21:56.229Z,2.83
2023-02-19T06:25:21.042Z,2.83
2023-02-19T06:28:45.880Z,2.87
2023-02-19T06:32:10.210Z,2.91
2023-02-19T06:35:35.233Z,2.98
2023-02-19T06:39:02.317Z,3.01
2023-02-19T06:42:26.293Z,3.03
2023-02-19T06:45:50.238Z,3.07
2023-02-19T06:49:16.171Z,3.07
2023-02-19T06:52:40.108Z,3.06
2023-02-19T06:56:07.526Z,3.08
2023-02-19T06:59:31.398Z,3.11
2023-02-19T07:02:56.737Z,3.17
2023-02-19T07:06:22.510Z,3.21
2023-02-19T07:09:46.392Z,3.21
2023-02-19T07:13:10.318Z,3.21
2023-02-19T07:16:35.212Z,3.22
2023-02-19T07:19:59.150Z,3.28
2023-02-19T07:23:23.007Z,3.38
2023-02-19T07:26:46.797Z,3.52
2023-02-19T07:30:11.669Z,3.66
2023-02-19T07:33:35.664Z,3.76
2023-02-19T07:36:59.538Z,3.91
2023-02-19T07:40:23.486Z,4.06
2023-02-19T07:43:47.493Z,4.25
2023-02-19T07:47:11.406Z,4.44
2023-02-19T07:50:35.345Z,4.42
2023-02-19T07:53:59.466Z,4.38
2023-02-19T07:57:23.428Z,4.34
2023-02-19T08:00:47.327Z,4.40
2023-02-19T08:04:13.244Z,4.40
2023-02-19T08:07:38.104Z,4.37
2023-02-19T08:11:24.613Z,4.34
2023-02-19T08:14:48.478Z,4.40
2023-02-19T08:18:14.149Z,4.42
2023-02-19T08:21:38.292Z,4.41
2023-02-19T08:25:02.194Z,4.51
2023-02-19T08:28:26.269Z,4.54
2023-02-19T08:31:51.230Z,4.57
2023-02-19T08:35:15.111Z,4.62
2023-02-19T08:38:39.235Z,4.66
2023-02-19T08:42:03.129Z,4.69
2023-02-19T08:45:27.046Z,4.70
2023-02-19T08:48:51.246Z,4.74
2023-02-19T08:52:15.177Z,4.87
2023-02-19T08:55:39.973Z,4.95
2023-02-19T08:59:03.946Z,4.97
2023-02-19T09:02:28.046Z,4.98
2023-02-19T09:05:51.998Z,4.96
2023-02-19T09:09:15.910Z,4.96
2023-02-19T09:12:40.721Z,4.88
2023-02-19T09:16:06.193Z,4.82
2023-02-19T09:19:30.832Z,4.86
2023-02-19T09:22:59.336Z,4.95
2023-02-19T09:26:25.017Z,4.97
2023-02-19T09:29:48.916Z,4.94
2023-02-19T09:33:12.899Z,4.90
2023-02-19T09:36:36.845Z,4.98
2023-02-19T09:40:00.692Z,5.05
2023-02-19T09:43:28.998Z,5.13
2023-02-19T09:46:55.068Z,5.25
2023-02-19T09:50:23.531Z,5.40
2023-02-19T09:53:51.947Z,5.61
2023-02-19T09:57:19.333Z,5.71
2023-02-19T10:00:43.967Z,5.93
2023-02-19T10:04:07.822Z,6.02
2023-02-19T10:07:40.477Z,6.04
2023-02-19T10:11:06.327Z,6.02
2023-02-19T10:14:45.944Z,6.06
2023-02-19T10:18:11.243Z,5.99
2023-02-19T10:21:35.382Z,5.91
2023-02-19T10:25:00.089Z,5.97
2023-02-19T10:28:29.150Z,6.03
2023-02-19T10:32:19.069Z,6.08
2023-02-19T10:35:57.887Z,5.99
2023-02-19T10:39:24.604Z,5.74
2023-02-19T10:42:55.150Z,5.64
2023-02-19T10:46:25.418Z,5.69
2023-02-19T10:49:52.280Z,5.70
2023-02-19T10:53:24.373Z,5.66
2023-02-19T10:56:48.619Z,5.56
2023-02-19T11:00:27.509Z,5.46
2023-02-19T11:04:15.225Z,5.32
2023-02-19T11:07:45.408Z,5.23
2023-02-19T11:11:09.631Z,5.28
2023-02-19T11:14:35.693Z,5.47
2023-02-19T11:18:20.461Z,5.74
2023-02-19T11:21:44.347Z,5.99
2023-02-19T11:25:11.102Z,5.99
2023-02-19T11:28:41.286Z,6.07
2023-02-19T11:32:26.767Z,6.23
2023-02-19T11:35:54.987Z,6.26
2023-02-19T11:39:18.829Z,6.28
2023-02-19T11:42:57.910Z,6.31
2023-02-19T11:46:59.684Z,6.31
2023-02-19T11:50:30.618Z,6.48
2023-02-19T11:54:33.441Z,6.53
2023-02-19T11:58:34.337Z,6.50
2023-02-19T12:02:18.370Z,6.48
2023-02-19T12:05:50.681Z,6.55
2023-02-19T12:09:33.492Z,6.40
2023-02-19T12:13:24.546Z,6.10
2023-02-19T12:16:52.591Z,5.88
2023-02-19T12:20:22.989Z,5.82
2023-02-19T12:24:14.986Z,5.69
2023-02-19T12:28:20.006Z,5.57
2023-02-19T12:32:06.462Z,5.54
2023-02-19T12:35:52.255Z,5.55
2023-02-19T12:39:40.600Z,5.72
2023-02-19T12:43:23.597Z,6.01
2023-02-19T12:46:56.230Z,6.13
2023-02-19T12:50:26.498Z,6.37
2023-02-19T12:54:16.147Z,6.40
2023-02-19T12:57:40.976Z,6.51
2023-02-19T13:01:08.369Z,6.63
2023-02-19T13:04:52.143Z,6.50
2023-02-19T13:08:48.791Z,6.25
2023-02-19T13:12:38.138Z,6.07
2023-02-19T13:16:09.923Z,6.00
2023-02-19T13:19:34.660Z,5.91
2023-02-19T13:23:22.340Z,5.96
2023-02-19T13:27:04.546Z,5.91
2023-02-19T13:30:39.867Z,5.83
2023-02-19T13:34:22.088Z,5.96
2023-02-19T13:37:46.364Z,6.06
2023-02-19T13:41:29.200Z,5.98
2023-02-19T13:44:57.998Z,5.75
2023-02-19T13:48:25.668Z,5.82
2023-02-19T13:51:52.893Z,5.89
2023-02-19T13:55:46.880Z,5.94
2023-02-19T13:59:37.952Z,5.83
2023-02-19T14:03:28.793Z,5.51
2023-02-19T14:07:04.879Z,5.38
2023-02-19T14:10:47.520Z,5.35
2023-02-19T14:14:36.436Z,5.54
2023-02-19T14:18:00.438Z,5.68
2023-02-19T14:21:39.041Z,5.73
2023-02-19T14:25:09.566Z,5.56
2023-02-19T14:28:38.376Z,5.29
2023-02-19T14:32:06.600Z,5.17
2023-02-19T14:35:41.749Z,5.04
2023-02-19T14:39:22.997Z,4.95
2023-02-19T14:42:47.395Z,4.79
2023-02-19T14:46:24.581Z,4.71
2023-02-19T14:49:51.030Z,4.70
2023-02-19T14:53:18.311Z,4.66
2023-02-19T14:56:48.076Z,4.65
2023-02-19T15:00:29.417Z,4.61
2023-02-19T15:03:57.803Z,4.55
2023-02-19T15:07:31.517Z,4.48
2023-02-19T15:10:56.018Z,4.38
2023-02-19T15:14:24.461Z,4.31
2023-02-19T15:17:48.479Z,4.24
2023-02-19T15:21:22.864Z,4.21
2023-02-19T15:24:48.871Z,4.16
2023-02-19T15:28:28.715Z,4.11
2023-02-19T15:32:00.573Z,4.07
2023-02-19T15:35:26.445Z,4.01
2023-02-19T15:38:55.725Z,3.93
2023-02-19T15:42:30.839Z,3.88
2023-02-19T15:46:10.805Z,3.79
2023-02-19T15:49:50.536Z,3.70
2023-02-19T15:53:26.598Z,3.62
2023-02-19T15:56:52.841Z,3.56
2023-02-19T16:00:23.349Z,3.54
2023-02-19T16:03:48.395Z,3.52
2023-02-19T16:07:32.028Z,3.52
2023-02-19T16:10:57.961Z,3.51
2023-02-19T16:14:29.352Z,3.49
2023-02-19T16:17:54.430Z,3.47
2023-02-19T16:21:23.260Z,3.43
2023-02-19T16:24:50.075Z,3.42
2023-02-19T16:28:27.420Z,3.39
2023-02-19T16:31:54.353Z,3.38
2023-02-19T16:35:40.371Z,3.36
2023-02-19T16:39:07.329Z,3.36
2023-02-19T16:42:31.705Z,3.35
2023-02-19T16:45:55.879Z,3.35
2023-02-19T16:49:22.226Z,3.37
2023-02-19T16:52:58.145Z,3.40
2023-02-19T16:56:25.423Z,3.43
2023-02-19T16:59:49.298Z,3.43
2023-02-19T17:03:20.679Z,3.43
2023-02-19T17:06:45.689Z,3.42
2023-02-19T17:10:14.220Z,3.39
2023-02-19T17:13:39.537Z,3.37
2023-02-19T17:17:03.477Z,3.34
2023-02-19T17:20:32.682Z,3.31
2023-02-19T17:23:57.603Z,3.28
2023-02-19T17:27:21.624Z,3.28
2023-02-19T17:30:45.594Z,3.27
2023-02-19T17:34:09.474Z,3.29
2023-02-19T17:37:33.444Z,3.29
2023-02-19T17:40:57.992Z,3.27
2023-02-19T17:44:22.030Z,3.24
2023-02-19T17:47:48.891Z,3.20
2023-02-19T17:51:13.157Z,3.18
2023-02-19T17:54:37.247Z,3.14
2023-02-19T17:58:01.881Z,3.10
2023-02-19T18:01:26.274Z,3.06
2023-02-19T18:04:50.282Z,3.06
2023-02-19T18:08:14.712Z,3.06
2023-02-19T18:11:38.950Z,3.08
2023-02-19T18:15:03.389Z,3.09
2023-02-19T18:18:31.225Z,3.07
2023-02-19T18:21:55.161Z,3.04
2023-02-19T18:25:22.958Z,2.99
2023-02-19T18:28:49.214Z,2.94
2023-02-19T18:32:15.585Z,2.88
2023-02-19T18:35:39.374Z,2.82
2023-02-19T18:39:03.274Z,2.79
2023-02-19T18:42:28.434Z,2.73
2023-02-19T18:45:54.762Z,2.69
2023-02-19T18:49:19.185Z,2.65
2023-02-19T18:52:43.500Z,2.59
2023-02-19T18:56:09.232Z,2.53
2023-02-19T18:59:33.554Z,2.46
2023-02-19T19:03:01.051Z,2.39
2023-02-19T19:06:27.644Z,2.35
2023-02-19T19:09:51.691Z,2.32
2023-02-19T19:13:15.824Z,2.31
2023-02-19T19:16:39.744Z,2.30
2023-02-19T19:20:04.503Z,2.27
2023-02-19T19:23:28.573Z,2.23
2023-02-19T19:26:53.481Z,2.16
2023-02-19T19:30:18.180Z,2.08
2023-02-19T19:33:43.609Z,2.04
2023-02-19T19:37:10.597Z,1.99
2023-02-19T19:40:34.684Z,2.01
2023-02-19T19:43:58.764Z,2.06
2023-02-19T19:47:22.753Z,2.11
2023-02-19T19:50:49.056Z,2.16
2023-02-19T19:54:13.470Z,2.19
2023-02-19T19:57:40.629Z,2.16
2023-02-19T20:01:06.115Z,2.09
2023-02-19T20:04:30.521Z,2.01
2023-02-19T20:07:55.849Z,1.95
2023-02-19T20:11:19.708Z,1.91
2023-02-19T20:14:47.755Z,1.88
2023-02-19T20:18:11.658Z,1.84
2023-02-19T20:21:38.029Z,1.77
2023-02-19T20:25:02.266Z,1.70
2023-02-19T20:28:26.256Z,1.64
2023-02-19T20:31:51.668Z,1.58
2023-02-19T20:35:16.933Z,1.52
2023-02-19T20:38:43.452Z,1.47
2023-02-19T20:42:08.320Z,1.44
2023-02-19T20:45:33.904Z,1.43
2023-02-19T20:48:58.442Z,1.42
2023-02-19T20:52:24.823Z,1.39
2023-02-19T20:55:48.828Z,1.35
2023-02-19T20:59:13.878Z,1.31
2023-02-19T21:02:38.969Z,1.26
2023-02-19T21:06:03.279Z,1.21
2023-02-19T21:09:27.180Z,1.19
2023-02-19T21:13:13.553Z,1.18
2023-02-19T21:17:11.578Z,1.17
2023-02-19T21:21:09.552Z,1.14
2023-02-19T21:25:07.523Z,1.09
2023-02-19T21:29:06.458Z,1.04
2023-02-19T21:33:04.535Z,1.00
2023-02-19T21:37:02.450Z,0.98
2023-02-19T21:41:01.527Z,0.96
2023-02-19T21:44:59.471Z,0.92
2023-02-19T21:48:57.671Z,0.89
2023-02-19T21:52:55.531Z,0.81
2023-02-19T21:56:53.474Z,0.73
2023-02-19T22:00:51.468Z,0.67
2023-02-19T22:04:49.465Z,0.62
2023-02-19T22:08:47.545Z,0.60
2023-02-19T22:12:45.394Z,0.60
2023-02-19T22:16:43.555Z,0.58
2023-02-19T22:20:44.457Z,0.54
2023-02-19T22:24:42.467Z,0.47
2023-02-19T22:28:40.513Z,0.41
2023-02-19T22:32:38.440Z,0.34
2023-02-19T22:36:38.419Z,0.28
2023-02-19T22:40:36.392Z,0.22
2023-02-19T22:44:34.375Z,0.20
2023-02-19T22:48:32.456Z,0.21
2023-02-19T22:52:30.387Z,0.22
2023-02-19T22:56:30.375Z,0.20
2023-02-19T23:00:34.326Z,0.14
2023-02-19T23:04:32.442Z,0.07
2023-02-19T23:08:30.348Z,0.00
2023-02-19T23:12:28.326Z,-0.03
2023-02-19T23:16:26.359Z,-0.03
2023-02-19T23:20:24.299Z,-0.01
2023-02-19T23:24:22.489Z,-0.01
2023-02-19T23:28:20.288Z,-0.03
2023-02-19T23:32:18.323Z,-0.07
2023-02-19T23:36:16.283Z,-0.13
2023-02-19T23:40:14.279Z,-0.16
2023-02-19T23:44:12.359Z,-0.18
2023-02-19T23:48:10.325Z,-0.16
2023-02-19T23:52:08.244Z,-0.15
2023-02-19T23:56:06.231Z,-0.19
